createdAt,value
2022-09-17T00:01:29.441Z,13.40
2022-09-17T00:04:04.170Z,13.40
2022-09-17T00:06:34.982Z,13.40
2022-09-17T00:09:04.148Z,13.40
2022-09-17T00:11:35.267Z,13.30
2022-09-17T00:14:04.440Z,13.30
2022-09-17T00:16:43.036Z,13.30
2022-09-17T00:19:18.099Z,13.20
2022-09-17T00:21:45.392Z,13.30
2022-09-17T00:24:14.573Z,13.20
2022-09-17T00:26:42.381Z,13.30
2022-09-17T00:29:10.789Z,13.30
2022-09-17T00:31:38.208Z,13.20
2022-09-17T00:34:07.000Z,13.20
2022-09-17T00:36:38.609Z,13.20
2022-09-17T00:39:09.854Z,13.20
2022-09-17T00:41:39.362Z,13.20
2022-09-17T00:44:49.108Z,13.20
2022-09-17T00:47:27.065Z,13.20
2022-09-17T00:50:07.477Z,13.10
2022-09-17T00:52:45.576Z,13.10
2022-09-17T00:55:21.753Z,13.00
2022-09-17T00:57:52.214Z,13.00
2022-09-17T01:00:20.038Z,13.00
2022-09-17T01:02:47.281Z,13.00
2022-09-17T01:05:15.591Z,13.00
2022-09-17T01:08:01.025Z,13.00
2022-09-17T01:11:11.927Z,13.00
2022-09-17T01:13:57.070Z,13.00
2022-09-17T01:16:44.957Z,13.00
2022-09-17T01:19:33.716Z,13.00
2022-09-17T01:22:03.196Z,13.00
2022-09-17T01:24:47.326Z,13.00
2022-09-17T01:27:45.933Z,13.00
2022-09-17T01:30:36.759Z,12.90
2022-09-17T01:33:47.158Z,12.90
2022-09-17T01:36:48.909Z,12.90
2022-09-17T01:40:00.846Z,12.90
2022-09-17T01:42:49.826Z,12.90
2022-09-17T01:45:33.284Z,12.80
2022-09-17T01:48:19.474Z,12.80
2022-09-17T01:50:58.003Z,12.80
2022-09-17T01:53:34.772Z,12.80
2022-09-17T01:56:04.264Z,12.80
2022-09-17T01:58:42.524Z,12.80
2022-09-17T02:01:18.068Z,12.80
2022-09-17T02:04:04.722Z,12.70
2022-09-17T02:06:39.377Z,12.80
2022-09-17T02:09:23.086Z,12.70
2022-09-17T02:11:58.943Z,12.70
2022-09-17T02:14:36.839Z,12.80
2022-09-17T02:17:15.124Z,12.70
2022-09-17T02:19:42.665Z,12.80
2022-09-17T02:22:23.581Z,12.70
2022-09-17T02:25:17.918Z,12.80
2022-09-17T02:28:15.055Z,12.80
2022-09-17T02:30:42.242Z,12.70
2022-09-17T02:33:15.066Z,12.80
2022-09-17T02:35:44.157Z,12.70
2022-09-17T02:38:11.537Z,12.70
2022-09-17T02:40:49.325Z,12.70
2022-09-17T02:43:42.015Z,12.80
2022-09-17T02:46:38.287Z,12.80
2022-09-17T02:49:59.205Z,12.80
2022-09-17T02:52:31.825Z,12.70
2022-09-17T02:55:40.093Z,12.70
2022-09-17T02:58:24.523Z,12.70
2022-09-17T03:00:53.126Z,12.70
2022-09-17T03:03:40.503Z,12.70
2022-09-17T03:06:07.665Z,12.70
2022-09-17T03:08:41.986Z,12.60
2022-09-17T03:11:12.904Z,12.60
2022-09-17T03:13:39.955Z,12.60
2022-09-17T03:16:07.982Z,12.60
2022-09-17T03:18:35.227Z,12.60
2022-09-17T03:21:02.021Z,12.50
2022-09-17T03:23:29.019Z,12.50
2022-09-17T03:25:55.901Z,12.50
2022-09-17T03:28:23.013Z,12.50
2022-09-17T03:30:49.797Z,12.50
2022-09-17T03:33:16.764Z,12.50
2022-09-17T03:35:45.248Z,12.50
2022-09-17T03:38:13.544Z,12.50
2022-09-17T03:40:40.758Z,12.40
2022-09-17T03:43:07.697Z,12.40
2022-09-17T03:45:34.739Z,12.50
2022-09-17T03:48:01.816Z,12.40
2022-09-17T03:50:28.836Z,12.40
2022-09-17T03:52:55.606Z,12.30
2022-09-17T03:55:22.499Z,12.30
2022-09-17T03:57:49.555Z,12.30
2022-09-17T04:00:17.424Z,12.30
2022-09-17T04:02:44.854Z,12.30
2022-09-17T04:05:11.759Z,12.30
2022-09-17T04:07:41.032Z,12.30
2022-09-17T04:10:09.113Z,12.30
2022-09-17T04:12:36.483Z,12.30
2022-09-17T04:15:04.412Z,12.30
2022-09-17T04:17:31.270Z,12.30
2022-09-17T04:19:58.438Z,12.30
2022-09-17T04:22:26.299Z,12.20
2022-09-17T04:24:53.084Z,12.30
2022-09-17T04:27:22.705Z,12.20
2022-09-17T04:29:50.006Z,12.20
2022-09-17T04:32:16.813Z,12.20
2022-09-17T04:34:43.603Z,12.20
2022-09-17T04:37:10.440Z,12.20
2022-09-17T04:39:38.158Z,12.20
2022-09-17T04:42:05.051Z,12.20
2022-09-17T04:44:31.918Z,12.20
2022-09-17T04:46:58.762Z,12.20
2022-09-17T04:49:29.693Z,12.20
2022-09-17T04:51:56.422Z,12.20
2022-09-17T04:54:23.512Z,12.20
2022-09-17T04:56:51.235Z,12.20
2022-09-17T04:59:18.011Z,12.30
2022-09-17T05:01:45.064Z,12.20
2022-09-17T05:04:12.037Z,12.20
2022-09-17T05:06:38.915Z,12.20
2022-09-17T05:09:05.688Z,12.20
2022-09-17T05:11:32.907Z,12.20
2022-09-17T05:13:59.913Z,12.20
2022-09-17T05:16:27.050Z,12.20
2022-09-17T05:18:54.138Z,12.20
2022-09-17T05:21:21.155Z,12.20
2022-09-17T05:23:48.072Z,12.20
2022-09-17T05:26:15.572Z,12.20
2022-09-17T05:28:42.752Z,12.20
2022-09-17T05:31:09.774Z,12.20
2022-09-17T05:33:36.677Z,12.20
2022-09-17T05:36:03.768Z,12.20
2022-09-17T05:38:30.582Z,12.20
2022-09-17T05:40:59.961Z,12.20
2022-09-17T05:43:26.850Z,12.20
2022-09-17T05:45:54.616Z,12.20
2022-09-17T05:48:21.463Z,12.20
2022-09-17T05:50:49.421Z,12.20
2022-09-17T05:53:16.204Z,12.20
2022-09-17T05:55:45.769Z,12.20
2022-09-17T05:58:19.131Z,12.30
2022-09-17T06:00:48.920Z,12.30
2022-09-17T06:03:20.763Z,12.20
2022-09-17T06:05:58.262Z,12.40
2022-09-17T06:08:27.996Z,12.30
2022-09-17T06:10:59.000Z,12.20
2022-09-17T06:13:32.437Z,12.20
2022-09-17T06:16:00.233Z,12.20
2022-09-17T06:18:30.044Z,12.20
2022-09-17T06:21:02.863Z,12.20
2022-09-17T06:23:35.323Z,12.20
2022-09-17T06:26:04.049Z,12.10
2022-09-17T06:28:32.033Z,12.20
2022-09-17T06:31:05.285Z,12.20
2022-09-17T06:33:33.443Z,12.20
2022-09-17T06:36:07.530Z,12.20
2022-09-17T06:38:36.642Z,12.20
2022-09-17T06:41:04.197Z,12.20
2022-09-17T06:43:32.014Z,12.20
2022-09-17T06:46:02.034Z,12.20
2022-09-17T06:48:30.583Z,12.20
2022-09-17T06:51:04.849Z,12.20
2022-09-17T06:53:31.797Z,12.30
2022-09-17T06:56:06.050Z,12.30
2022-09-17T06:58:37.081Z,12.30
2022-09-17T07:01:05.764Z,12.30
2022-09-17T07:03:33.919Z,12.30
2022-09-17T07:06:00.885Z,12.30
2022-09-17T07:08:27.677Z,12.40
2022-09-17T07:10:58.361Z,12.40
2022-09-17T07:13:26.213Z,12.40
2022-09-17T07:15:59.081Z,12.40
2022-09-17T07:18:27.223Z,12.40
2022-09-17T07:20:55.169Z,12.40
2022-09-17T07:23:27.629Z,12.40
2022-09-17T07:26:01.917Z,12.40
2022-09-17T07:28:29.439Z,12.50
2022-09-17T07:30:57.153Z,12.40
2022-09-17T07:33:27.715Z,12.50
2022-09-17T07:36:00.742Z,12.50
2022-09-17T07:38:30.012Z,12.60
2022-09-17T07:41:01.067Z,12.70
2022-09-17T07:43:32.077Z,12.80
2022-09-17T07:46:01.685Z,12.90
2022-09-17T07:48:29.631Z,13.00
2022-09-17T07:50:57.009Z,13.20
2022-09-17T07:53:24.394Z,13.30
2022-09-17T07:56:01.663Z,13.50
2022-09-17T07:58:35.929Z,13.60
2022-09-17T08:01:12.247Z,13.70
2022-09-17T08:03:40.081Z,13.80
2022-09-17T08:06:09.740Z,13.90
2022-09-17T08:08:37.858Z,14.00
2022-09-17T08:11:11.413Z,14.10
2022-09-17T08:13:39.317Z,14.20
2022-09-17T08:16:11.737Z,14.20
2022-09-17T08:18:39.194Z,14.20
2022-09-17T08:21:09.744Z,14.20
2022-09-17T08:23:38.719Z,14.20
2022-09-17T08:26:08.555Z,14.20
2022-09-17T08:28:35.836Z,14.20
2022-09-17T08:31:06.644Z,14.20
2022-09-17T08:33:35.863Z,14.20
2022-09-17T08:36:03.989Z,14.30
2022-09-17T08:38:37.888Z,14.50
2022-09-17T08:41:14.431Z,14.70
2022-09-17T08:44:02.519Z,14.90
2022-09-17T08:46:38.589Z,15.00
2022-09-17T08:49:30.636Z,15.00
2022-09-17T08:52:41.812Z,15.00
2022-09-17T08:55:21.598Z,14.90
2022-09-17T08:58:22.342Z,14.90
2022-09-17T09:01:10.244Z,14.70
2022-09-17T09:04:34.037Z,14.60
2022-09-17T09:07:21.814Z,14.50
2022-09-17T09:10:05.954Z,14.40
2022-09-17T09:12:37.458Z,14.30
2022-09-17T09:15:20.126Z,14.20
2022-09-17T09:17:51.016Z,14.10
2022-09-17T09:20:36.231Z,14.10
2022-09-17T09:23:20.064Z,14.10
2022-09-17T09:26:19.454Z,14.00
2022-09-17T09:29:06.057Z,14.00
2022-09-17T09:32:01.683Z,14.00
2022-09-17T09:34:33.860Z,14.00
2022-09-17T09:37:22.209Z,14.00
2022-09-17T09:39:54.238Z,14.10
2022-09-17T09:42:33.452Z,14.20
2022-09-17T09:45:12.232Z,14.20
2022-09-17T09:48:08.238Z,14.30
2022-09-17T09:51:12.588Z,14.30
2022-09-17T09:54:06.020Z,14.30
2022-09-17T09:57:03.521Z,14.30
2022-09-17T09:59:30.372Z,14.20
2022-09-17T10:01:57.837Z,14.20
2022-09-17T10:04:27.922Z,14.10
2022-09-17T10:07:06.605Z,14.20
2022-09-17T10:09:37.934Z,14.20
2022-09-17T10:12:08.968Z,14.20
2022-09-17T10:14:38.822Z,14.20
2022-09-17T10:17:22.592Z,14.20
2022-09-17T10:20:12.056Z,14.10
2022-09-17T10:22:42.491Z,13.90
2022-09-17T10:25:35.613Z,13.70
2022-09-17T10:28:28.333Z,13.60
2022-09-17T10:30:58.705Z,13.30
2022-09-17T10:33:31.135Z,13.20
2022-09-17T10:36:12.361Z,13.10
2022-09-17T10:38:47.904Z,13.00
2022-09-17T10:41:23.183Z,12.90
2022-09-17T10:43:50.492Z,12.90
2022-09-17T10:46:28.011Z,12.70
2022-09-17T10:49:09.145Z,12.60
2022-09-17T10:51:36.856Z,12.50
2022-09-17T10:54:19.986Z,12.50
2022-09-17T10:57:01.123Z,12.40
2022-09-17T10:59:33.727Z,12.40
2022-09-17T11:02:29.802Z,12.30
2022-09-17T11:05:25.299Z,12.30
2022-09-17T11:08:53.209Z,12.30
2022-09-17T11:12:17.806Z,12.30
2022-09-17T11:15:15.130Z,12.20
2022-09-17T11:18:05.645Z,12.30
2022-09-17T11:21:16.647Z,12.30
2022-09-17T11:24:04.838Z,12.40
2022-09-17T11:27:12.860Z,12.50
2022-09-17T11:29:56.705Z,12.60
2022-09-17T11:33:17.994Z,12.60
2022-09-17T11:35:50.152Z,12.60
2022-09-17T11:38:49.138Z,12.60
2022-09-17T11:41:42.851Z,12.50
2022-09-17T11:44:38.484Z,12.40
2022-09-17T11:47:15.631Z,12.40
2022-09-17T11:50:29.366Z,12.30
2022-09-17T11:53:18.160Z,12.30
2022-09-17T11:55:59.047Z,12.30
2022-09-17T11:58:44.253Z,12.30
2022-09-17T12:01:45.240Z,12.30
2022-09-17T12:05:01.769Z,12.50
2022-09-17T12:07:59.263Z,12.70
2022-09-17T12:10:35.657Z,12.80
2022-09-17T12:13:35.242Z,13.00
2022-09-17T12:16:33.281Z,13.00
2022-09-17T12:19:15.155Z,13.00
2022-09-17T12:21:48.901Z,13.00
2022-09-17T12:24:27.819Z,13.00
2022-09-17T12:27:10.870Z,13.00
2022-09-17T12:29:52.131Z,12.90
2022-09-17T12:33:13.192Z,12.90
2022-09-17T12:36:07.303Z,12.90
2022-09-17T12:39:02.803Z,12.80
2022-09-17T12:41:48.843Z,12.80
2022-09-17T12:44:42.915Z,12.80
2022-09-17T12:47:46.439Z,12.80
2022-09-17T12:50:42.438Z,12.90
2022-09-17T12:53:41.034Z,12.90
2022-09-17T12:56:26.124Z,12.90
2022-09-17T12:59:20.726Z,12.90
2022-09-17T13:02:12.847Z,13.00
2022-09-17T13:05:15.530Z,13.20
2022-09-17T13:08:30.159Z,13.30
2022-09-17T13:11:33.712Z,13.40
2022-09-17T13:14:31.341Z,13.40
2022-09-17T13:17:13.857Z,13.40
2022-09-17T13:19:56.407Z,13.30
2022-09-17T13:22:30.321Z,13.30
2022-09-17T13:25:11.663Z,13.20
2022-09-17T13:27:40.038Z,13.20
2022-09-17T13:30:12.087Z,13.10
2022-09-17T13:32:39.762Z,13.10
2022-09-17T13:35:15.035Z,13.10
2022-09-17T13:37:45.690Z,13.20
2022-09-17T13:40:34.313Z,13.30
2022-09-17T13:43:04.297Z,13.50
2022-09-17T13:45:33.670Z,13.60
2022-09-17T13:48:28.333Z,13.70
2022-09-17T13:50:55.455Z,13.80
2022-09-17T13:53:26.932Z,13.80
2022-09-17T13:56:01.075Z,13.70
2022-09-17T13:58:36.688Z,13.70
2022-09-17T14:01:26.592Z,13.70
2022-09-17T14:03:56.760Z,13.60
2022-09-17T14:06:23.455Z,13.60
2022-09-17T14:08:54.565Z,13.80
2022-09-17T14:11:24.310Z,14.30
2022-09-17T14:14:04.369Z,14.80
2022-09-17T14:16:40.640Z,15.30
2022-09-17T14:22:30.553Z,16.80
2022-09-17T14:25:04.248Z,17.90
2022-09-17T14:28:19.085Z,18.60
2022-09-17T14:30:55.252Z,19.40
2022-09-17T14:33:36.994Z,20.10
2022-09-17T14:36:19.808Z,20.60
2022-09-17T14:38:56.700Z,21.10
2022-09-17T14:41:42.139Z,21.20
2022-09-17T14:44:22.315Z,21.10
2022-09-17T14:47:08.520Z,20.60
2022-09-17T14:49:38.501Z,20.00
2022-09-17T14:52:30.417Z,19.30
2022-09-17T14:55:31.764Z,18.60
2022-09-17T14:58:04.848Z,17.90
2022-09-17T15:00:40.467Z,17.30
2022-09-17T15:03:21.404Z,16.80
2022-09-17T15:05:50.561Z,16.40
2022-09-17T15:08:28.874Z,16.10
2022-09-17T15:11:01.285Z,15.70
2022-09-17T15:13:41.512Z,15.40
2022-09-17T15:16:25.974Z,15.20
2022-09-17T15:18:55.138Z,15.00
2022-09-17T15:21:44.101Z,14.80
2022-09-17T15:24:50.271Z,14.50
2022-09-17T15:27:57.130Z,14.20
2022-09-17T15:30:25.814Z,14.00
2022-09-17T15:32:59.478Z,13.80
2022-09-17T15:35:30.146Z,13.60
2022-09-17T15:38:22.394Z,13.40
2022-09-17T15:40:50.514Z,13.30
2022-09-17T15:43:31.570Z,13.10
2022-09-17T15:46:26.743Z,13.00
2022-09-17T15:49:00.725Z,12.90
2022-09-17T15:51:29.949Z,12.80
2022-09-17T15:54:06.706Z,12.80
2022-09-17T15:56:41.189Z,12.70
2022-09-17T15:59:32.078Z,12.70
2022-09-17T16:02:02.126Z,12.70
2022-09-17T16:04:38.662Z,12.70
2022-09-17T16:07:08.389Z,12.70
2022-09-17T16:09:46.823Z,12.70
2022-09-17T16:12:23.856Z,12.80
2022-09-17T16:14:57.019Z,12.70
2022-09-17T16:17:37.214Z,12.70
2022-09-17T16:20:30.971Z,12.70
2022-09-17T16:22:57.907Z,12.70
2022-09-17T16:25:27.455Z,12.70
2022-09-17T16:28:08.369Z,12.70
2022-09-17T16:30:35.248Z,12.70
2022-09-17T16:33:03.908Z,12.70
2022-09-17T16:35:30.838Z,12.60
2022-09-17T16:37:57.866Z,12.60
2022-09-17T16:40:29.737Z,12.60
2022-09-17T16:43:00.684Z,12.60
2022-09-17T16:45:29.089Z,12.60
2022-09-17T16:47:56.468Z,12.60
2022-09-17T16:50:24.021Z,12.60
2022-09-17T16:52:50.939Z,12.60
2022-09-17T16:55:18.715Z,12.80
2022-09-17T16:57:46.465Z,13.00
2022-09-17T17:00:19.070Z,13.10
2022-09-17T17:02:55.351Z,13.30
2022-09-17T17:05:24.140Z,13.40
2022-09-17T17:07:51.190Z,13.40
2022-09-17T17:10:18.544Z,13.30
2022-09-17T17:12:45.363Z,13.40
2022-09-17T17:15:12.483Z,13.20
2022-09-17T17:17:39.365Z,13.00
2022-09-17T17:20:09.604Z,12.90
2022-09-17T17:22:37.769Z,12.80
2022-09-17T17:25:06.878Z,12.70
2022-09-17T17:27:34.672Z,12.60
2022-09-17T17:30:05.351Z,12.50
2022-09-17T17:32:36.447Z,12.40
2022-09-17T17:35:04.830Z,12.30
2022-09-17T17:37:31.638Z,12.20
2022-09-17T17:39:58.487Z,12.20
2022-09-17T17:42:25.332Z,12.10
2022-09-17T17:44:52.195Z,12.00
2022-09-17T17:47:19.037Z,12.00
2022-09-17T17:49:45.803Z,11.90
2022-09-17T17:52:12.545Z,11.90
2022-09-17T17:54:39.330Z,11.80
2022-09-17T17:57:06.179Z,11.80
2022-09-17T17:59:32.993Z,11.80
2022-09-17T18:01:59.949Z,11.80
2022-09-17T18:04:26.893Z,11.70
2022-09-17T18:06:54.052Z,11.70
2022-09-17T18:09:20.871Z,11.70
2022-09-17T18:11:47.641Z,11.70
2022-09-17T18:14:14.640Z,11.70
2022-09-17T18:16:41.520Z,11.70
2022-09-17T18:19:11.137Z,11.70
2022-09-17T18:21:38.222Z,11.80
2022-09-17T18:24:05.195Z,11.60
2022-09-17T18:26:32.589Z,11.60
2022-09-17T18:29:03.215Z,11.60
2022-09-17T18:31:34.596Z,11.60
2022-09-17T18:34:15.516Z,11.50
2022-09-17T18:36:48.726Z,11.50
2022-09-17T18:39:56.439Z,11.50
2022-09-17T18:42:04.658Z,11.50
2022-09-17T18:44:31.588Z,11.50
2022-09-17T18:46:58.507Z,11.40
2022-09-17T18:49:25.358Z,11.40
2022-09-17T18:51:52.133Z,11.40
2022-09-17T18:54:18.979Z,11.40
2022-09-17T18:56:45.837Z,11.30
2022-09-17T18:59:12.594Z,11.30
2022-09-17T19:01:39.425Z,11.30
2022-09-17T19:04:10.001Z,11.20
2022-09-17T19:06:36.845Z,11.20
2022-09-17T19:09:05.642Z,11.20
2022-09-17T19:11:35.132Z,11.10
2022-09-17T19:14:02.128Z,11.10
2022-09-17T19:16:29.006Z,11.00
2022-09-17T19:18:55.899Z,11.00
2022-09-17T19:21:22.713Z,10.90
2022-09-17T19:23:51.884Z,10.90
2022-09-17T19:26:22.229Z,10.90
2022-09-17T19:28:57.540Z,10.80
2022-09-17T19:31:25.097Z,10.90
2022-09-17T19:33:52.390Z,10.80
2022-09-17T19:36:20.991Z,10.80
2022-09-17T19:38:48.814Z,10.80
2022-09-17T19:41:25.295Z,10.70
2022-09-17T19:43:53.655Z,10.70
2022-09-17T19:46:24.399Z,10.70
2022-09-17T19:48:57.341Z,10.70
2022-09-17T19:51:28.195Z,10.70
2022-09-17T19:53:55.688Z,10.80
2022-09-17T19:56:26.215Z,10.80
2022-09-17T19:58:54.007Z,10.80
2022-09-17T20:01:21.169Z,10.80
2022-09-17T20:03:48.238Z,10.80
2022-09-17T20:06:17.657Z,10.80
2022-09-17T20:08:50.224Z,10.80
2022-09-17T20:11:19.485Z,10.90
2022-09-17T20:13:46.562Z,10.90
2022-09-17T20:16:21.608Z,10.90
2022-09-17T20:18:49.647Z,11.00
2022-09-17T20:21:20.785Z,10.90
2022-09-17T20:23:47.960Z,11.00
2022-09-17T20:26:16.130Z,10.90
2022-09-17T20:28:43.756Z,11.00
2022-09-17T20:31:19.910Z,11.00
2022-09-17T20:33:48.089Z,11.00
2022-09-17T20:36:18.975Z,11.00
2022-09-17T20:41:34.266Z,11.00
2022-09-17T20:44:01.184Z,11.00
2022-09-17T20:46:29.488Z,10.90
2022-09-17T20:48:58.328Z,10.90
2022-09-17T20:51:28.683Z,10.90
2022-09-17T20:53:57.230Z,10.80
2022-09-17T20:56:29.133Z,10.80
2022-09-17T20:59:13.258Z,10.80
2022-09-17T21:01:44.554Z,10.80
2022-09-17T21:04:14.675Z,10.80
2022-09-17T21:06:43.385Z,10.80
2022-09-17T21:09:15.666Z,10.80
2022-09-17T21:11:45.018Z,10.80
2022-09-17T21:14:12.334Z,10.80
2022-09-17T21:16:39.336Z,10.80
2022-09-17T21:19:08.926Z,10.80
2022-09-17T21:21:35.967Z,10.80
2022-09-17T21:24:05.887Z,10.80
2022-09-17T21:26:34.430Z,10.80
2022-09-17T21:29:01.626Z,10.80
2022-09-17T21:31:33.194Z,10.90
2022-09-17T21:34:03.808Z,10.80
2022-09-17T21:36:35.708Z,10.80
2022-09-17T21:39:11.798Z,10.80
2022-09-17T21:41:42.528Z,10.80
2022-09-17T21:44:11.728Z,10.70
2022-09-17T21:46:41.456Z,10.70
2022-09-17T21:49:08.591Z,10.70
2022-09-17T21:51:39.233Z,10.60
2022-09-17T21:54:12.724Z,10.50
2022-09-17T21:56:39.930Z,10.50
2022-09-17T21:59:11.503Z,10.40
2022-09-17T22:01:46.939Z,10.30
2022-09-17T22:04:20.818Z,10.20
2022-09-17T22:06:49.947Z,10.10
2022-09-17T22:09:24.361Z,10.10
2022-09-17T22:11:53.203Z,10.00
2022-09-17T22:14:23.376Z,9.90
2022-09-17T22:16:54.816Z,9.90
2022-09-17T22:19:23.993Z,9.80
2022-09-17T22:21:54.322Z,9.80
2022-09-17T22:24:22.640Z,9.70
2022-09-17T22:26:57.281Z,9.80
2022-09-17T22:29:26.546Z,9.70
2022-09-17T22:31:53.546Z,9.70
2022-09-17T22:34:23.283Z,9.70
2022-09-17T22:36:50.647Z,9.60
2022-09-17T22:39:20.880Z,9.60
2022-09-17T22:41:48.003Z,9.60
2022-09-17T22:44:18.216Z,9.70
2022-09-17T22:46:48.628Z,9.60
2022-09-17T22:49:16.639Z,9.60
2022-09-17T22:51:46.455Z,9.60
2022-09-17T22:54:16.483Z,9.60
2022-09-17T22:56:44.122Z,9.60
2022-09-17T22:59:11.281Z,9.50
2022-09-17T23:01:40.624Z,9.50
2022-09-17T23:04:07.737Z,9.50
2022-09-17T23:06:38.453Z,9.50
2022-09-17T23:09:06.655Z,9.60
2022-09-17T23:11:39.358Z,9.50
2022-09-17T23:14:12.005Z,9.50
2022-09-17T23:16:43.341Z,9.50
2022-09-17T23:19:10.942Z,9.50
2022-09-17T23:21:38.970Z,9.50
2022-09-17T23:24:07.131Z,9.60
2022-09-17T23:26:34.230Z,9.60
2022-09-17T23:29:04.844Z,9.60
2022-09-17T23:31:34.779Z,9.60
2022-09-17T23:34:02.445Z,9.60
2022-09-17T23:36:32.154Z,9.60
2022-09-17T23:38:59.848Z,9.60
2022-09-17T23:41:30.496Z,9.60
2022-09-17T23:44:01.007Z,9.70
2022-09-17T23:46:31.272Z,9.70
2022-09-17T23:48:58.852Z,9.80
2022-09-17T23:51:30.652Z,9.80
2022-09-17T23:53:59.164Z,9.80
2022-09-17T23:56:28.206Z,9.80
2022-09-17T23:58:59.721Z,9.80
